createdAt,value
2018-10-07T00:00:26.876Z,65.42
2018-10-07T00:01:07.182Z,65.44
2018-10-07T00:01:47.572Z,65.69
2018-10-07T00:02:27.936Z,65.69
2018-10-07T00:03:08.224Z,65.41
2018-10-07T00:03:48.615Z,65.56
2018-10-07T00:04:28.917Z,65.21
2018-10-07T00:05:09.157Z,65.47
2018-10-07T00:05:49.409Z,65.78
2018-10-07T00:06:29.641Z,65.70
2018-10-07T00:07:09.824Z,65.60
2018-10-07T00:07:50.187Z,65.72
2018-10-07T00:08:30.523Z,65.50
2018-10-07T00:09:10.710Z,65.79
2018-10-07T00:09:51.164Z,65.93
2018-10-07T00:10:31.470Z,65.41
2018-10-07T00:11:11.772Z,65.24
2018-10-07T00:11:52.464Z,65.42
2018-10-07T00:12:32.573Z,65.40
2018-10-07T00:13:12.731Z,65.67
2018-10-07T00:13:53.376Z,65.34
2018-10-07T00:14:33.620Z,65.30
2018-10-07T00:15:14.452Z,65.25
2018-10-07T00:15:54.879Z,65.18
2018-10-07T00:16:35.041Z,65.55
2018-10-07T00:17:15.581Z,65.81
2018-10-07T00:17:55.886Z,65.52
2018-10-07T00:18:36.133Z,65.35
2018-10-07T00:19:16.360Z,65.07
2018-10-07T00:19:56.560Z,65.29
2018-10-07T00:20:36.819Z,65.42
2018-10-07T00:21:17.101Z,65.51
2018-10-07T00:21:57.298Z,65.33
2018-10-07T00:22:37.594Z,65.11
2018-10-07T00:23:17.884Z,66.02
2018-10-07T00:23:58.048Z,65.69
2018-10-07T00:24:38.404Z,65.77
2018-10-07T00:25:18.648Z,65.88
2018-10-07T00:25:58.872Z,65.53
2018-10-07T00:26:39.198Z,65.52
2018-10-07T00:27:19.400Z,65.49
2018-10-07T00:27:59.607Z,65.44
2018-10-07T00:28:39.845Z,65.30
2018-10-07T00:29:20.124Z,65.55
2018-10-07T00:30:00.244Z,64.74
2018-10-07T00:30:40.533Z,65.00
2018-10-07T00:31:20.666Z,64.33
2018-10-07T00:32:06.053Z,64.90
2018-10-07T00:32:46.320Z,65.08
2018-10-07T00:33:26.540Z,64.52
2018-10-07T00:34:06.620Z,65.03
2018-10-07T00:34:47.849Z,65.04
2018-10-07T00:35:28.021Z,65.31
2018-10-07T00:36:08.273Z,65.31
2018-10-07T00:36:48.672Z,65.16
2018-10-07T00:37:28.789Z,65.59
2018-10-07T00:38:08.873Z,65.22
2018-10-07T00:38:49.311Z,65.24
2018-10-07T00:39:29.464Z,65.18
2018-10-07T00:40:10.158Z,65.24
2018-10-07T00:40:50.445Z,65.27
2018-10-07T00:41:30.595Z,65.36
2018-10-07T00:42:11.254Z,65.36
2018-10-07T00:42:51.593Z,65.25
2018-10-07T00:43:32.148Z,65.35
2018-10-07T00:44:12.409Z,65.12
2018-10-07T00:44:52.584Z,65.38
2018-10-07T00:45:32.850Z,65.49
2018-10-07T00:46:13.138Z,65.70
2018-10-07T00:46:53.475Z,65.48
2018-10-07T00:47:33.701Z,65.28
2018-10-07T00:48:14.037Z,65.29
2018-10-07T00:48:54.232Z,65.71
2018-10-07T00:49:35.057Z,65.96
2018-10-07T00:50:15.329Z,65.35
2018-10-07T00:50:55.595Z,65.70
2018-10-07T00:51:35.868Z,65.47
2018-10-07T00:52:16.308Z,65.12
2018-10-07T00:52:56.783Z,65.71
2018-10-07T00:53:36.989Z,65.85
2018-10-07T00:54:17.301Z,65.65
2018-10-07T00:54:57.861Z,65.38
2018-10-07T00:55:38.036Z,65.33
2018-10-07T00:56:18.404Z,65.52
2018-10-07T00:56:58.637Z,65.36
2018-10-07T00:57:38.928Z,65.87
2018-10-07T00:58:19.252Z,65.66
2018-10-07T00:58:59.559Z,65.53
2018-10-07T00:59:39.840Z,65.69
2018-10-07T01:00:20.028Z,65.94
2018-10-07T01:01:00.653Z,65.84
2018-10-07T01:01:40.768Z,65.52
2018-10-07T01:02:21.070Z,65.76
2018-10-07T01:03:01.359Z,66.03
2018-10-07T01:03:41.534Z,65.84
2018-10-07T01:04:21.769Z,66.06
2018-10-07T01:05:02.096Z,66.24
2018-10-07T01:05:42.841Z,66.16
2018-10-07T01:06:22.997Z,66.43
2018-10-07T01:07:03.896Z,66.21
2018-10-07T01:07:44.145Z,66.06
2018-10-07T01:08:24.404Z,65.99
2018-10-07T01:09:07.295Z,66.09
2018-10-07T01:09:47.439Z,66.40
2018-10-07T01:10:27.516Z,66.39
2018-10-07T01:11:08.145Z,66.20
2018-10-07T01:11:48.390Z,66.47
2018-10-07T01:12:28.520Z,66.32
2018-10-07T01:13:08.691Z,66.58
2018-10-07T01:13:49.029Z,66.00
2018-10-07T01:14:29.244Z,66.19
2018-10-07T01:15:09.505Z,66.40
2018-10-07T01:15:50.316Z,66.28
2018-10-07T01:16:30.559Z,66.41
2018-10-07T01:17:11.183Z,66.60
2018-10-07T01:17:51.535Z,66.12
2018-10-07T01:18:31.760Z,66.76
2018-10-07T01:19:12.023Z,66.47
2018-10-07T01:19:52.657Z,66.56
2018-10-07T01:20:32.815Z,66.87
2018-10-07T01:21:13.219Z,66.30
2018-10-07T01:21:53.762Z,66.81
2018-10-07T01:22:34.153Z,66.95
2018-10-07T01:23:14.375Z,67.15
2018-10-07T01:23:54.751Z,67.16
2018-10-07T01:24:34.872Z,66.93
2018-10-07T01:25:15.200Z,67.03
2018-10-07T01:25:55.461Z,67.01
2018-10-07T01:26:35.635Z,67.23
2018-10-07T01:27:16.016Z,67.27
2018-10-07T01:27:56.720Z,67.01
2018-10-07T01:28:36.997Z,66.87
2018-10-07T01:29:17.157Z,67.30
2018-10-07T01:29:57.459Z,67.17
2018-10-07T01:30:37.599Z,66.74
2018-10-07T01:31:17.796Z,66.81
2018-10-07T01:31:58.036Z,66.65
2018-10-07T01:32:38.207Z,67.15
2018-10-07T01:33:18.559Z,67.05
2018-10-07T01:33:58.790Z,67.09
2018-10-07T01:34:39.023Z,67.21
2018-10-07T01:35:19.468Z,66.94
2018-10-07T01:35:59.629Z,66.86
2018-10-07T01:36:39.894Z,67.15
2018-10-07T01:37:20.344Z,67.24
2018-10-07T01:38:00.744Z,67.14
2018-10-07T01:38:41.097Z,67.42
2018-10-07T01:39:21.336Z,67.17
2018-10-07T01:40:01.485Z,67.08
2018-10-07T01:40:41.817Z,67.50
2018-10-07T01:41:22.125Z,66.92
2018-10-07T01:42:02.450Z,66.84
2018-10-07T01:42:42.725Z,66.90
2018-10-07T01:43:23.069Z,67.02
2018-10-07T01:44:03.350Z,66.82
2018-10-07T01:44:43.600Z,67.06
2018-10-07T01:45:23.795Z,67.23
2018-10-07T01:46:04.084Z,66.73
2018-10-07T01:46:44.588Z,67.35
2018-10-07T01:47:24.777Z,66.83
2018-10-07T01:48:05.128Z,67.43
2018-10-07T01:48:45.567Z,66.91
2018-10-07T01:49:25.771Z,67.12
2018-10-07T01:50:06.434Z,67.06
2018-10-07T01:50:46.747Z,67.31
2018-10-07T01:51:26.963Z,67.37
2018-10-07T01:52:07.529Z,67.23
2018-10-07T01:52:48.028Z,67.21
2018-10-07T01:53:28.469Z,67.17
2018-10-07T01:54:08.759Z,67.22
2018-10-07T01:54:49.018Z,66.95
2018-10-07T01:55:29.200Z,67.14
2018-10-07T01:56:09.680Z,67.45
2018-10-07T01:56:49.860Z,66.87
2018-10-07T01:57:30.236Z,67.17
2018-10-07T01:58:10.421Z,67.40
2018-10-07T01:58:50.668Z,67.26
2018-10-07T01:59:30.857Z,67.58
2018-10-07T02:00:11.465Z,67.45
2018-10-07T02:00:51.624Z,67.53
2018-10-07T02:01:31.948Z,67.82
2018-10-07T02:02:12.223Z,67.85
2018-10-07T02:02:52.467Z,67.58
2018-10-07T02:03:32.902Z,68.24
2018-10-07T02:04:13.241Z,68.19
2018-10-07T02:04:53.590Z,68.15
2018-10-07T02:05:34.077Z,68.06
2018-10-07T02:06:14.259Z,68.01
2018-10-07T02:06:54.425Z,68.28
2018-10-07T02:07:34.756Z,67.97
2018-10-07T02:08:15.139Z,68.52
2018-10-07T02:08:55.397Z,68.45
2018-10-07T02:09:35.533Z,67.97
2018-10-07T02:10:15.887Z,68.42
2018-10-07T02:10:56.204Z,68.41
2018-10-07T02:11:36.426Z,68.71
2018-10-07T02:12:16.765Z,68.23
2018-10-07T02:12:56.936Z,68.23
2018-10-07T02:13:37.168Z,68.65
2018-10-07T02:14:17.552Z,68.21
2018-10-07T02:14:57.648Z,68.16
2018-10-07T02:15:38.337Z,68.51
2018-10-07T02:16:18.522Z,68.55
2018-10-07T02:16:58.628Z,68.35
2018-10-07T02:17:38.872Z,68.70
2018-10-07T02:18:19.268Z,68.18
2018-10-07T02:18:59.636Z,68.43
2018-10-07T02:19:39.865Z,68.66
2018-10-07T02:20:20.152Z,68.39
2018-10-07T02:21:00.503Z,68.56
2018-10-07T02:21:40.766Z,69.00
2018-10-07T02:22:21.064Z,69.24
2018-10-07T02:23:01.267Z,68.77
2018-10-07T02:23:41.457Z,68.95
2018-10-07T02:24:21.724Z,68.88
2018-10-07T02:25:01.968Z,68.81
2018-10-07T02:25:42.220Z,69.03
2018-10-07T02:26:22.593Z,69.01
2018-10-07T02:27:02.844Z,68.85
2018-10-07T02:27:43.229Z,68.71
2018-10-07T02:28:23.435Z,68.53
2018-10-07T02:29:04.140Z,68.80
2018-10-07T02:29:44.415Z,68.45
2018-10-07T02:30:24.635Z,68.72
2018-10-07T02:31:04.753Z,68.79
2018-10-07T02:31:45.163Z,68.78
2018-10-07T02:32:25.479Z,68.78
2018-10-07T02:33:05.808Z,68.71
2018-10-07T02:33:45.756Z,69.14
2018-10-07T02:34:26.150Z,69.03
2018-10-07T02:35:06.231Z,68.95
2018-10-07T02:35:46.436Z,69.51
2018-10-07T02:36:26.635Z,69.56
2018-10-07T02:37:06.872Z,69.17
2018-10-07T02:37:47.070Z,69.29
2018-10-07T02:38:27.593Z,68.73
2018-10-07T02:39:09.195Z,68.75
2018-10-07T02:39:49.444Z,68.99
2018-10-07T02:40:29.588Z,68.89
2018-10-07T02:41:09.786Z,69.05
2018-10-07T02:41:49.872Z,68.75
2018-10-07T02:42:30.157Z,68.86
2018-10-07T02:43:10.988Z,68.87
2018-10-07T02:43:51.261Z,68.84
2018-10-07T02:44:31.501Z,69.13
2018-10-07T02:45:12.020Z,68.85
2018-10-07T02:45:52.168Z,69.23
2018-10-07T02:46:32.507Z,69.20
2018-10-07T02:47:12.700Z,69.22
2018-10-07T02:47:53.032Z,68.72
2018-10-07T02:48:33.352Z,68.68
2018-10-07T02:49:13.587Z,68.89
2018-10-07T02:49:53.793Z,69.19
2018-10-07T02:50:34.184Z,69.23
2018-10-07T02:51:14.058Z,69.16
2018-10-07T02:51:54.516Z,69.01
2018-10-07T02:52:40.072Z,69.14
2018-10-07T02:53:20.473Z,69.40
2018-10-07T02:54:01.068Z,68.75
2018-10-07T02:54:41.506Z,68.72
2018-10-07T02:55:25.033Z,68.86
2018-10-07T02:56:05.940Z,68.89
2018-10-07T02:56:46.709Z,69.28
2018-10-07T02:57:27.957Z,68.98
2018-10-07T02:58:08.265Z,69.36
2018-10-07T02:58:48.563Z,69.23
2018-10-07T02:59:28.908Z,69.20
2018-10-07T03:00:09.200Z,69.45
2018-10-07T03:00:49.618Z,69.21
2018-10-07T03:01:29.816Z,69.33
2018-10-07T03:02:09.944Z,69.75
2018-10-07T03:02:50.884Z,69.79
2018-10-07T03:03:31.047Z,69.62
2018-10-07T03:04:11.646Z,69.49
2018-10-07T03:04:52.045Z,69.54
2018-10-07T03:05:33.074Z,69.68
2018-10-07T03:06:13.869Z,69.62
2018-10-07T03:06:54.114Z,69.56
2018-10-07T03:07:34.493Z,69.80
2018-10-07T03:08:14.025Z,69.53
2018-10-07T03:08:53.814Z,69.66
2018-10-07T03:09:34.061Z,69.70
2018-10-07T03:10:14.345Z,69.61
2018-10-07T03:10:54.078Z,69.93
2018-10-07T03:11:34.275Z,70.03
2018-10-07T03:12:14.448Z,69.96
2018-10-07T03:12:54.636Z,69.59
2018-10-07T03:13:34.780Z,69.50
2018-10-07T03:14:15.159Z,69.92
2018-10-07T03:14:55.578Z,69.81
2018-10-07T03:15:35.687Z,70.03
2018-10-07T03:16:16.168Z,69.84
2018-10-07T03:16:56.304Z,69.94
2018-10-07T03:17:36.700Z,69.76
2018-10-07T03:18:16.929Z,69.77
2018-10-07T03:18:57.313Z,70.07
2018-10-07T03:19:37.476Z,69.68
2018-10-07T03:20:17.999Z,70.35
2018-10-07T03:20:58.456Z,70.06
2018-10-07T03:21:38.702Z,70.28
2018-10-07T03:22:18.982Z,70.52
2018-10-07T03:22:59.248Z,70.16
2018-10-07T03:23:39.552Z,70.26
2018-10-07T03:24:19.853Z,69.91
2018-10-07T03:25:00.337Z,70.19
2018-10-07T03:25:40.415Z,70.62
2018-10-07T03:26:20.781Z,70.30
2018-10-07T03:27:01.127Z,70.19
2018-10-07T03:27:41.426Z,70.24
2018-10-07T03:28:21.858Z,70.13
2018-10-07T03:29:02.126Z,70.20
2018-10-07T03:29:42.318Z,70.15
2018-10-07T03:30:22.696Z,69.90
2018-10-07T03:31:02.973Z,70.34
2018-10-07T03:31:43.267Z,70.31
2018-10-07T03:32:23.871Z,70.49
2018-10-07T03:33:04.248Z,70.32
2018-10-07T03:33:44.338Z,70.84
2018-10-07T03:34:24.597Z,70.65
2018-10-07T03:35:04.897Z,70.28
2018-10-07T03:35:45.132Z,70.60
2018-10-07T03:36:25.329Z,70.64
2018-10-07T03:37:05.545Z,70.41
2018-10-07T03:37:45.734Z,70.18
2018-10-07T03:38:26.099Z,70.23
2018-10-07T03:39:07.367Z,70.66
2018-10-07T03:39:47.844Z,70.30
2018-10-07T03:40:28.160Z,70.69
2018-10-07T03:41:08.489Z,71.00
2018-10-07T03:41:48.739Z,70.83
2018-10-07T03:42:29.250Z,70.87
2018-10-07T03:43:09.409Z,70.82
2018-10-07T03:43:49.684Z,70.39
2018-10-07T03:44:29.989Z,71.03
2018-10-07T03:45:10.305Z,70.74
2018-10-07T03:45:50.686Z,70.54
2018-10-07T03:46:31.011Z,70.64
2018-10-07T03:47:11.210Z,70.50
2018-10-07T03:47:51.464Z,70.48
2018-10-07T03:48:31.674Z,70.99
2018-10-07T03:49:12.056Z,70.27
2018-10-07T03:49:52.352Z,70.18
2018-10-07T03:50:32.527Z,70.48
2018-10-07T03:51:12.719Z,70.30
2018-10-07T03:51:53.203Z,70.39
2018-10-07T03:52:33.518Z,70.48
2018-10-07T03:53:13.966Z,70.43
2018-10-07T03:53:54.451Z,70.44
2018-10-07T03:54:34.933Z,70.49
2018-10-07T03:55:15.170Z,70.14
2018-10-07T03:55:55.466Z,70.15
2018-10-07T03:56:35.726Z,70.39
2018-10-07T03:57:15.976Z,70.06
2018-10-07T03:57:56.238Z,70.39
2018-10-07T03:58:36.588Z,70.22
2018-10-07T03:59:16.939Z,70.66
2018-10-07T03:59:57.427Z,70.24
2018-10-07T04:00:38.110Z,70.23
2018-10-07T04:01:18.618Z,70.45
2018-10-07T04:01:59.191Z,70.56
2018-10-07T04:02:39.760Z,70.37
2018-10-07T04:03:20.034Z,70.67
2018-10-07T04:04:00.279Z,70.72
2018-10-07T04:04:40.488Z,70.71
2018-10-07T04:05:21.130Z,70.75
2018-10-07T04:06:01.471Z,71.27
2018-10-07T04:06:42.211Z,70.68
2018-10-07T04:07:23.413Z,70.45
2018-10-07T04:08:03.668Z,71.27
2018-10-07T04:08:44.105Z,71.29
2018-10-07T04:09:24.698Z,72.03
2018-10-07T04:10:04.996Z,72.02
2018-10-07T04:10:45.306Z,71.97
2018-10-07T04:11:25.674Z,72.36
2018-10-07T04:12:06.441Z,72.43
2018-10-07T04:12:46.856Z,72.48
2018-10-07T04:13:27.137Z,73.21
2018-10-07T04:14:07.290Z,72.78
2018-10-07T04:14:48.089Z,72.93
2018-10-07T04:15:28.784Z,73.31
2018-10-07T04:16:09.053Z,73.68
2018-10-07T04:16:48.788Z,73.12
2018-10-07T04:17:29.213Z,73.35
2018-10-07T04:18:09.492Z,72.87
2018-10-07T04:18:49.869Z,73.45
2018-10-07T04:19:30.206Z,73.55
2018-10-07T04:20:09.956Z,73.34
2018-10-07T04:20:50.351Z,73.51
2018-10-07T04:21:30.552Z,73.78
2018-10-07T04:22:10.893Z,74.01
2018-10-07T04:22:50.557Z,73.66
2018-10-07T04:23:30.129Z,73.75
2018-10-07T04:24:09.765Z,73.83
2018-10-07T04:24:49.680Z,73.98
2018-10-07T04:25:29.492Z,73.74
2018-10-07T04:26:09.144Z,73.69
2018-10-07T04:26:49.108Z,73.77
2018-10-07T04:27:28.951Z,73.70
2018-10-07T04:28:09.224Z,73.92
2018-10-07T04:28:49.652Z,73.63
2018-10-07T04:29:29.329Z,74.04
2018-10-07T04:30:10.324Z,73.81
2018-10-07T04:30:49.981Z,73.81
2018-10-07T04:31:29.736Z,74.22
2018-10-07T04:32:09.480Z,74.08
2018-10-07T04:32:49.463Z,74.15
2018-10-07T04:33:29.785Z,74.09
2018-10-07T04:34:10.169Z,74.01
2018-10-07T04:34:50.301Z,73.79
2018-10-07T04:35:30.644Z,73.53
2018-10-07T04:36:10.228Z,73.51
2018-10-07T04:36:50.113Z,73.15
2018-10-07T04:37:30.553Z,72.75
2018-10-07T04:38:11.021Z,72.63
2018-10-07T04:38:51.553Z,73.40
2018-10-07T04:39:31.456Z,73.35
2018-10-07T04:40:11.752Z,73.33
2018-10-07T04:40:51.399Z,73.76
2018-10-07T04:41:31.609Z,73.90
2018-10-07T04:42:11.810Z,72.87
2018-10-07T04:42:51.522Z,73.30
2018-10-07T04:43:31.147Z,73.63
2018-10-07T04:44:10.884Z,73.71
2018-10-07T04:44:50.904Z,73.34
2018-10-07T04:45:31.227Z,73.25
2018-10-07T04:46:11.556Z,73.56
2018-10-07T04:46:52.233Z,74.11
2018-10-07T04:47:32.595Z,73.66
2018-10-07T04:48:12.940Z,73.72
2018-10-07T04:48:53.282Z,73.41
2018-10-07T04:49:33.488Z,73.96
2018-10-07T04:50:13.803Z,73.93
2018-10-07T04:50:54.104Z,73.86
2018-10-07T04:51:33.899Z,73.58
2018-10-07T04:52:13.613Z,73.84
2018-10-07T04:52:53.991Z,73.88
2018-10-07T04:53:33.736Z,73.96
2018-10-07T04:54:14.117Z,73.89
2018-10-07T04:54:53.827Z,73.92
2018-10-07T04:55:33.456Z,73.66
2018-10-07T04:56:13.514Z,73.47
2018-10-07T04:56:53.209Z,73.79
2018-10-07T04:57:33.039Z,74.00
2018-10-07T04:58:12.824Z,73.38
2018-10-07T04:58:52.685Z,73.64
2018-10-07T04:59:32.937Z,73.71
2018-10-07T05:00:12.651Z,73.43
2018-10-07T05:00:53.289Z,73.36
2018-10-07T05:01:33.020Z,73.72
2018-10-07T05:02:12.840Z,73.80
2018-10-07T05:02:52.812Z,73.90
2018-10-07T05:03:32.635Z,73.54
2018-10-07T05:04:12.363Z,73.14
2018-10-07T05:04:52.258Z,72.92
2018-10-07T05:05:31.922Z,73.23
2018-10-07T05:06:11.548Z,73.27
2018-10-07T05:06:51.913Z,73.63
2018-10-07T05:07:31.742Z,73.26
2018-10-07T05:08:12.051Z,73.80
2018-10-07T05:08:54.155Z,74.14
2018-10-07T05:09:34.244Z,74.13
2018-10-07T05:10:43.084Z,73.92
2018-10-07T05:11:23.155Z,74.06
2018-10-07T05:12:05.200Z,73.93
2018-10-07T05:12:45.250Z,73.74
2018-10-07T05:13:35.533Z,73.90
2018-10-07T05:14:15.798Z,73.96
2018-10-07T05:14:55.724Z,74.07
2018-10-07T05:15:35.550Z,74.04
2018-10-07T05:16:21.702Z,74.16
2018-10-07T05:17:01.520Z,74.07
2018-10-07T05:17:41.149Z,74.28
2018-10-07T05:18:20.902Z,74.16
2018-10-07T05:19:02.111Z,73.90
2018-10-07T05:19:41.710Z,74.02
2018-10-07T05:20:21.948Z,73.97
2018-10-07T05:21:01.755Z,74.08
2018-10-07T05:21:41.709Z,74.08
2018-10-07T05:22:21.600Z,73.83
2018-10-07T05:23:01.861Z,73.27
2018-10-07T05:23:41.694Z,73.36
2018-10-07T05:24:21.819Z,72.90
2018-10-07T05:25:02.136Z,73.08
2018-10-07T05:25:42.016Z,73.70
2018-10-07T05:26:22.345Z,73.88
2018-10-07T05:27:01.954Z,74.11
2018-10-07T05:27:41.571Z,74.17
2018-10-07T05:28:22.015Z,74.28
2018-10-07T05:29:02.034Z,74.28
2018-10-07T05:29:42.822Z,74.10
2018-10-07T05:30:22.476Z,74.23
2018-10-07T05:31:02.102Z,74.32
2018-10-07T05:31:41.697Z,74.46
2018-10-07T05:32:22.283Z,74.37
2018-10-07T05:33:02.810Z,74.85
2018-10-07T05:33:43.147Z,74.77
2018-10-07T05:34:23.528Z,74.52
2018-10-07T05:35:03.813Z,74.63
2018-10-07T05:35:45.133Z,74.46
2018-10-07T05:36:24.919Z,74.25
2018-10-07T05:37:05.948Z,74.28
2018-10-07T05:37:46.636Z,74.62
2018-10-07T05:38:26.156Z,74.67
2018-10-07T05:39:08.588Z,74.55
2018-10-07T05:39:48.166Z,74.72
2018-10-07T05:40:28.619Z,74.93
2018-10-07T05:41:09.310Z,74.63
2018-10-07T05:41:49.832Z,74.98
2018-10-07T05:42:30.014Z,74.71
2018-10-07T05:43:10.240Z,74.67
2018-10-07T05:43:50.876Z,74.85
2018-10-07T05:44:31.300Z,74.72
2018-10-07T05:45:11.660Z,74.36
2018-10-07T05:45:51.581Z,74.37
2018-10-07T05:46:32.264Z,74.33
2018-10-07T05:47:12.519Z,74.06
2018-10-07T05:47:52.305Z,74.21
2018-10-07T05:48:32.004Z,74.01
2018-10-07T05:49:12.333Z,73.70
2018-10-07T05:49:52.217Z,73.95
2018-10-07T05:50:32.339Z,73.91
2018-10-07T05:51:12.641Z,73.77
2018-10-07T05:51:52.954Z,74.58
2018-10-07T05:52:32.775Z,74.21
2018-10-07T05:53:12.461Z,74.26
2018-10-07T05:53:52.170Z,74.31
2018-10-07T05:54:32.392Z,74.07
2018-10-07T05:55:12.775Z,74.36
2018-10-07T05:55:53.186Z,74.38
2018-10-07T05:56:32.804Z,73.91
2018-10-07T05:57:13.150Z,74.13
2018-10-07T05:57:56.983Z,73.92
2018-10-07T05:58:37.939Z,73.81
2018-10-07T05:59:18.262Z,73.80
2018-10-07T05:59:58.392Z,73.80
2018-10-07T06:00:38.582Z,73.62
2018-10-07T06:01:39.650Z,73.91
2018-10-07T06:02:20.224Z,73.25
2018-10-07T06:03:08.448Z,73.20
2018-10-07T06:04:53.349Z,73.76
2018-10-07T06:05:33.570Z,73.74
2018-10-07T06:06:13.843Z,73.59
2018-10-07T06:06:56.315Z,73.79
2018-10-07T06:07:36.188Z,73.54
2018-10-07T06:08:18.058Z,73.34
2018-10-07T06:08:58.793Z,73.22
2018-10-07T06:09:39.377Z,73.22
2018-10-07T06:10:19.747Z,73.21
2018-10-07T06:11:00.193Z,73.58
2018-10-07T06:11:40.389Z,72.99
2018-10-07T06:12:20.109Z,72.95
2018-10-07T06:13:00.389Z,72.74
2018-10-07T06:13:41.132Z,72.81
2018-10-07T06:14:33.089Z,72.31
2018-10-07T06:15:46.941Z,71.95
2018-10-07T06:16:27.329Z,72.07
2018-10-07T06:17:07.740Z,71.51
2018-10-07T06:17:47.844Z,71.50
2018-10-07T06:18:28.020Z,70.97
2018-10-07T06:19:08.706Z,71.04
2018-10-07T06:19:49.357Z,71.44
2018-10-07T06:20:29.952Z,70.84
2018-10-07T06:21:11.001Z,70.92
2018-10-07T06:21:51.660Z,70.59
2018-10-07T06:22:32.019Z,70.78
2018-10-07T06:23:12.916Z,70.52
2018-10-07T06:23:53.824Z,70.93
2018-10-07T06:24:35.261Z,70.91
2018-10-07T06:25:15.554Z,70.47
2018-10-07T06:25:56.105Z,70.70
2018-10-07T06:26:36.720Z,70.84
2018-10-07T06:27:17.026Z,70.89
2018-10-07T06:27:58.000Z,70.33
2018-10-07T06:28:38.486Z,70.77
2018-10-07T06:29:18.965Z,70.37
2018-10-07T06:29:59.626Z,69.90
2018-10-07T06:30:40.076Z,69.71
2018-10-07T06:31:20.802Z,70.04
2018-10-07T06:32:01.136Z,70.05
2018-10-07T06:32:41.655Z,69.90
2018-10-07T06:33:22.219Z,69.58
2018-10-07T06:34:02.552Z,69.47
2018-10-07T06:34:43.156Z,69.74
2018-10-07T06:35:24.616Z,69.81
2018-10-07T06:36:05.234Z,69.59
2018-10-07T06:36:45.628Z,69.78
2018-10-07T06:37:26.179Z,69.40
2018-10-07T06:38:06.826Z,69.52
2018-10-07T06:38:47.199Z,69.11
2018-10-07T06:39:27.600Z,69.18
2018-10-07T06:40:07.844Z,69.45
2018-10-07T06:40:48.139Z,69.21
2018-10-07T06:41:28.715Z,68.78
2018-10-07T06:42:09.496Z,68.76
2018-10-07T06:42:50.301Z,68.57
2018-10-07T06:43:30.695Z,68.74
2018-10-07T06:44:11.069Z,68.64
2018-10-07T06:44:51.927Z,68.43
2018-10-07T06:45:32.617Z,68.15
2018-10-07T06:46:14.413Z,68.12
2018-10-07T06:46:54.887Z,68.23
2018-10-07T06:47:35.079Z,68.16
2018-10-07T06:48:15.484Z,67.90
2018-10-07T06:48:55.752Z,67.72
2018-10-07T06:49:36.090Z,68.09
2018-10-07T06:50:16.442Z,68.30
2018-10-07T06:50:56.843Z,68.03
2018-10-07T06:51:37.616Z,68.19
2018-10-07T06:52:17.860Z,68.01
2018-10-07T06:52:58.498Z,67.84
2018-10-07T06:53:38.656Z,67.79
2018-10-07T06:54:19.308Z,67.96
2018-10-07T06:54:59.859Z,67.94
2018-10-07T06:55:40.437Z,67.76
2018-10-07T06:56:20.935Z,68.14
2018-10-07T06:57:01.240Z,68.43
2018-10-07T06:57:41.857Z,68.87
2018-10-07T06:58:22.340Z,68.93
2018-10-07T06:59:02.500Z,68.84
2018-10-07T06:59:43.224Z,68.93
2018-10-07T07:00:23.548Z,68.95
2018-10-07T07:01:04.138Z,69.04
2018-10-07T07:01:44.426Z,69.45
2018-10-07T07:02:24.888Z,69.91
2018-10-07T07:03:05.379Z,69.00
2018-10-07T07:03:45.681Z,69.16
2018-10-07T07:04:26.106Z,69.02
2018-10-07T07:05:06.760Z,69.24
2018-10-07T07:05:47.251Z,68.76
2018-10-07T07:06:27.723Z,68.29
2018-10-07T07:07:08.612Z,68.33
2018-10-07T07:07:48.967Z,67.75
2018-10-07T07:08:29.384Z,67.59
2018-10-07T07:09:10.513Z,67.81
2018-10-07T07:09:51.050Z,67.33
2018-10-07T07:10:31.488Z,67.92
2018-10-07T07:11:11.725Z,67.47
2018-10-07T07:11:52.084Z,67.40
2018-10-07T07:12:32.425Z,67.72
2018-10-07T07:13:12.752Z,67.18
2018-10-07T07:13:53.182Z,67.10
2018-10-07T07:14:33.391Z,67.26
2018-10-07T07:15:14.011Z,67.35
2018-10-07T07:15:54.365Z,67.48
2018-10-07T07:16:34.829Z,67.03
2018-10-07T07:17:15.155Z,67.09
2018-10-07T07:17:55.602Z,66.69
2018-10-07T07:18:35.823Z,66.15
2018-10-07T07:19:16.268Z,66.22
2018-10-07T07:19:56.841Z,66.21
2018-10-07T07:20:37.330Z,65.97
2018-10-07T07:21:17.981Z,65.92
2018-10-07T07:21:58.831Z,66.70
2018-10-07T07:22:39.087Z,66.00
2018-10-07T07:23:19.420Z,66.51
2018-10-07T07:23:59.744Z,66.00
2018-10-07T07:24:40.020Z,65.68
2018-10-07T07:25:20.506Z,65.88
2018-10-07T07:26:00.674Z,65.72
2018-10-07T07:26:40.919Z,65.90
2018-10-07T07:27:21.340Z,65.51
2018-10-07T07:28:01.550Z,65.43
2018-10-07T07:28:42.133Z,65.86
2018-10-07T07:29:22.492Z,65.59
2018-10-07T07:30:03.120Z,65.28
2018-10-07T07:30:43.400Z,65.74
2018-10-07T07:31:23.938Z,64.91
2018-10-07T07:32:04.350Z,65.13
2018-10-07T07:32:44.662Z,64.87
2018-10-07T07:33:24.889Z,64.70
2018-10-07T07:34:05.244Z,64.71
2018-10-07T07:34:45.514Z,64.65
2018-10-07T07:35:25.751Z,64.69
2018-10-07T07:36:06.036Z,65.04
2018-10-07T07:36:46.491Z,64.52
2018-10-07T07:37:26.932Z,64.94
2018-10-07T07:38:07.192Z,65.11
2018-10-07T07:38:47.600Z,64.85
2018-10-07T07:39:28.236Z,64.65
2018-10-07T07:40:08.510Z,65.32
2018-10-07T07:40:48.802Z,65.12
2018-10-07T07:41:29.004Z,65.22
2018-10-07T07:42:09.346Z,64.73
2018-10-07T07:42:49.905Z,64.98
2018-10-07T07:43:30.341Z,65.03
2018-10-07T07:44:10.733Z,64.72
2018-10-07T07:44:51.187Z,64.91
2018-10-07T07:45:31.544Z,64.36
2018-10-07T07:46:11.928Z,65.27
2018-10-07T07:46:52.275Z,64.68
2018-10-07T07:47:32.503Z,65.16
2018-10-07T07:48:12.825Z,64.97
2018-10-07T07:48:53.337Z,64.63
2018-10-07T07:49:33.539Z,64.74
2018-10-07T07:50:13.840Z,64.91
2018-10-07T07:50:54.130Z,64.48
2018-10-07T07:51:34.232Z,64.46
2018-10-07T07:52:14.561Z,64.00
2018-10-07T07:52:54.860Z,64.75
2018-10-07T07:53:35.188Z,64.47
2018-10-07T07:54:15.675Z,64.61
2018-10-07T07:54:56.060Z,64.61
2018-10-07T07:55:36.290Z,64.68
2018-10-07T07:56:16.690Z,63.68
2018-10-07T07:56:57.014Z,63.37
2018-10-07T07:57:37.416Z,63.94
2018-10-07T07:58:17.852Z,63.23
2018-10-07T07:58:58.177Z,62.82
2018-10-07T07:59:38.888Z,63.00
2018-10-07T08:00:19.316Z,63.39
2018-10-07T08:00:59.783Z,63.41
2018-10-07T08:01:40.151Z,63.48
2018-10-07T08:02:20.662Z,64.21
2018-10-07T08:03:00.824Z,63.31
2018-10-07T08:03:41.153Z,63.83
2018-10-07T08:04:21.598Z,63.57
2018-10-07T08:05:01.912Z,63.72
2018-10-07T08:05:42.259Z,63.71
2018-10-07T08:06:22.682Z,63.13
2018-10-07T08:07:03.076Z,63.72
2018-10-07T08:07:43.365Z,63.26
2018-10-07T08:08:23.882Z,63.23
2018-10-07T08:09:06.285Z,62.08
2018-10-07T08:09:46.677Z,62.18
2018-10-07T08:10:26.850Z,62.74
2018-10-07T08:11:07.307Z,62.45
2018-10-07T08:11:47.796Z,61.87
2018-10-07T08:12:28.125Z,62.16
2018-10-07T08:13:08.469Z,61.83
2018-10-07T08:13:48.913Z,61.39
2018-10-07T08:14:29.405Z,61.31
2018-10-07T08:15:09.905Z,60.71
2018-10-07T08:15:50.320Z,61.36
2018-10-07T08:16:30.765Z,61.17
2018-10-07T08:17:11.273Z,60.25
2018-10-07T08:17:52.145Z,61.39
2018-10-07T08:18:32.700Z,61.14
2018-10-07T08:19:12.968Z,61.21
2018-10-07T08:19:53.662Z,61.92
2018-10-07T08:20:33.889Z,61.13
2018-10-07T08:21:14.701Z,61.19
2018-10-07T08:21:55.144Z,61.62
2018-10-07T08:22:35.315Z,62.42
2018-10-07T08:23:15.801Z,61.93
2018-10-07T08:23:56.321Z,62.13
2018-10-07T08:24:36.847Z,62.71
2018-10-07T08:25:17.453Z,62.46
2018-10-07T08:25:57.861Z,61.54
2018-10-07T08:26:38.140Z,61.44
2018-10-07T08:27:18.607Z,61.30
2018-10-07T08:27:58.768Z,60.54
2018-10-07T08:28:39.001Z,61.06
2018-10-07T08:29:19.287Z,60.87
2018-10-07T08:29:59.594Z,61.16
2018-10-07T08:30:40.340Z,61.34
2018-10-07T08:31:20.972Z,62.11
2018-10-07T08:32:01.245Z,61.84
2018-10-07T08:32:41.496Z,62.30
2018-10-07T08:33:21.766Z,62.37
2018-10-07T08:34:01.852Z,61.75
2018-10-07T08:34:41.937Z,61.49
2018-10-07T08:35:22.180Z,61.66
2018-10-07T08:36:02.615Z,61.82
2018-10-07T08:36:42.762Z,61.25
2018-10-07T08:37:23.031Z,61.03
2018-10-07T08:38:03.267Z,60.62
2018-10-07T08:38:43.422Z,60.60
2018-10-07T08:39:23.720Z,60.52
2018-10-07T08:40:03.936Z,60.58
2018-10-07T08:40:44.084Z,60.58
2018-10-07T08:41:24.420Z,60.66
2018-10-07T08:42:04.699Z,59.93
2018-10-07T08:42:45.056Z,60.17